createdAt,value
2019-05-25T00:02:16.146Z,20.27
2019-05-25T00:04:46.463Z,21.52
2019-05-25T00:07:17.016Z,20.25
2019-05-25T00:09:48.446Z,21.00
2019-05-25T00:12:21.144Z,20.17
2019-05-25T00:14:51.728Z,18.25
2019-05-25T00:17:22.383Z,20.25
2019-05-25T00:19:54.631Z,20.20
2019-05-25T00:22:24.978Z,21.90
2019-05-25T00:24:55.534Z,21.27
2019-05-25T00:27:25.813Z,19.73
2019-05-25T00:29:56.053Z,20.52
2019-05-25T00:32:26.480Z,21.52
2019-05-25T00:34:56.983Z,20.25
2019-05-25T00:37:27.296Z,20.95
2019-05-25T00:39:57.526Z,21.45
2019-05-25T00:42:27.737Z,20.92
2019-05-25T00:44:57.960Z,20.55
2019-05-25T00:47:28.223Z,18.95
2019-05-25T00:49:59.522Z,20.12
2019-05-25T00:52:30.226Z,20.25
2019-05-25T00:55:00.960Z,19.65
2019-05-25T00:57:31.266Z,20.85
2019-05-25T01:00:01.482Z,20.12
2019-05-25T01:02:32.267Z,21.50
2019-05-25T01:05:02.852Z,20.05
2019-05-25T01:07:33.598Z,20.55
2019-05-25T01:10:06.351Z,20.10
2019-05-25T01:12:36.701Z,19.67
2019-05-25T01:15:08.049Z,20.12
2019-05-25T01:17:38.787Z,19.85
2019-05-25T01:20:12.731Z,20.25
2019-05-25T01:22:43.494Z,20.85
2019-05-25T01:25:15.042Z,21.33
2019-05-25T01:27:45.265Z,20.27
2019-05-25T01:30:15.989Z,20.82
2019-05-25T01:32:46.580Z,20.92
2019-05-25T01:35:17.267Z,20.90
2019-05-25T01:37:48.730Z,20.48
2019-05-25T01:40:21.316Z,20.62
2019-05-25T01:42:52.030Z,20.95
2019-05-25T01:45:22.654Z,22.20
2019-05-25T01:47:53.304Z,21.55
2019-05-25T01:50:23.655Z,22.25
2019-05-25T01:52:53.896Z,22.48
2019-05-25T01:55:24.456Z,21.45
2019-05-25T01:57:54.747Z,22.52
2019-05-25T02:00:27.025Z,22.77
2019-05-25T02:02:57.773Z,22.00
2019-05-25T02:05:28.467Z,24.00
2019-05-25T02:07:58.832Z,24.05
2019-05-25T02:10:29.033Z,22.07
2019-05-25T02:12:59.272Z,23.02
2019-05-25T02:15:29.847Z,23.15
2019-05-25T02:18:00.180Z,21.55
2019-05-25T02:20:30.437Z,22.02
2019-05-25T02:23:01.028Z,22.65
2019-05-25T02:25:31.670Z,22.62
2019-05-25T02:28:01.979Z,24.15
2019-05-25T02:30:32.222Z,22.80
2019-05-25T02:33:03.895Z,22.80
2019-05-25T02:35:34.179Z,22.13
2019-05-25T02:38:04.517Z,22.48
2019-05-25T02:40:34.770Z,22.75
2019-05-25T02:43:05.379Z,22.58
2019-05-25T02:45:36.754Z,21.87
2019-05-25T02:48:07.341Z,22.50
2019-05-25T02:50:37.634Z,23.80
2019-05-25T02:53:07.881Z,22.75
2019-05-25T02:55:38.421Z,22.13
2019-05-25T02:58:09.351Z,20.68
2019-05-25T03:00:39.625Z,22.27
2019-05-25T03:03:09.903Z,22.50
2019-05-25T03:05:40.878Z,20.77
2019-05-25T03:08:11.523Z,20.60
2019-05-25T03:10:42.879Z,21.85
2019-05-25T03:13:13.740Z,19.80
2019-05-25T03:15:44.267Z,20.43
2019-05-25T03:18:14.951Z,21.42
2019-05-25T03:20:45.188Z,21.77
2019-05-25T03:23:15.615Z,20.92
2019-05-25T03:25:49.748Z,21.82
2019-05-25T03:28:18.471Z,21.30
2019-05-25T03:30:48.801Z,21.40
2019-05-25T03:33:19.416Z,19.85
2019-05-25T03:35:49.957Z,20.68
2019-05-25T03:38:23.204Z,20.23
2019-05-25T03:40:53.864Z,19.20
2019-05-25T03:43:24.507Z,19.90
2019-05-25T03:45:55.184Z,17.67
2019-05-25T03:48:25.491Z,18.37
2019-05-25T03:50:56.084Z,18.30
2019-05-25T03:53:26.320Z,18.67
2019-05-25T03:56:05.221Z,17.65
2019-05-25T03:58:28.574Z,18.02
2019-05-25T04:00:59.156Z,17.73
2019-05-25T04:03:29.863Z,15.83
2019-05-25T04:06:00.144Z,15.85
2019-05-25T04:08:30.770Z,15.90
2019-05-25T04:11:02.868Z,15.35
2019-05-25T04:13:33.530Z,15.32
2019-05-25T04:16:04.584Z,15.15
2019-05-25T04:18:34.905Z,14.20
2019-05-25T04:21:05.155Z,14.73
2019-05-25T04:23:35.793Z,14.60
2019-05-25T04:26:21.352Z,14.35
2019-05-25T04:28:38.029Z,14.15
2019-05-25T04:31:09.796Z,14.50
2019-05-25T04:33:40.513Z,14.15
2019-05-25T04:36:11.133Z,15.18
2019-05-25T04:38:41.578Z,14.13
2019-05-25T04:41:12.133Z,14.53
2019-05-25T04:43:42.484Z,14.05
2019-05-25T04:46:12.882Z,13.88
2019-05-25T04:48:43.105Z,13.93
2019-05-25T04:51:13.375Z,13.98
2019-05-25T04:53:43.958Z,13.60
2019-05-25T04:56:14.274Z,13.00
2019-05-25T04:58:44.847Z,13.13
2019-05-25T05:01:15.248Z,12.65
2019-05-25T05:03:48.103Z,12.23
2019-05-25T05:06:18.416Z,11.25
2019-05-25T05:08:49.018Z,10.85
2019-05-25T05:11:19.312Z,10.90
2019-05-25T05:13:50.174Z,10.65
2019-05-25T05:16:20.566Z,10.58
2019-05-25T05:18:50.829Z,10.90
2019-05-25T05:21:21.038Z,10.45
2019-05-25T05:23:51.350Z,10.60
2019-05-25T05:26:21.996Z,9.83
2019-05-25T05:28:52.301Z,9.75
2019-05-25T05:31:23.883Z,9.30
2019-05-25T05:33:54.908Z,9.55
2019-05-25T05:36:27.652Z,9.48
2019-05-25T05:38:58.854Z,9.60
2019-05-25T05:41:32.902Z,8.28
2019-05-25T05:44:05.184Z,8.03
2019-05-25T05:46:40.279Z,8.43
2019-05-25T05:49:11.798Z,7.95
2019-05-25T05:51:44.587Z,7.45
2019-05-25T05:54:20.491Z,7.03
2019-05-25T05:56:50.850Z,6.47
2019-05-25T05:59:21.334Z,6.50
2019-05-25T06:01:51.547Z,5.97
2019-05-25T06:04:22.139Z,5.55
2019-05-25T06:06:52.792Z,6.17
2019-05-25T06:09:24.433Z,7.97
2019-05-25T06:11:55.001Z,8.08
2019-05-25T06:14:25.649Z,7.67
2019-05-25T06:16:57.560Z,8.38
2019-05-25T06:19:27.856Z,7.80
2019-05-25T06:21:58.115Z,8.88
2019-05-25T06:24:28.349Z,8.38
2019-05-25T06:26:58.570Z,7.75
2019-05-25T06:29:29.138Z,7.95
2019-05-25T06:31:59.800Z,8.33
2019-05-25T06:34:30.822Z,8.38
2019-05-25T06:37:01.453Z,8.53
2019-05-25T06:39:31.788Z,6.75
2019-05-25T06:42:02.144Z,7.42
2019-05-25T06:44:32.435Z,6.67
2019-05-25T06:47:02.684Z,5.87
2019-05-25T06:49:33.048Z,5.95
2019-05-25T06:52:04.611Z,5.03
2019-05-25T06:54:35.005Z,5.62
2019-05-25T06:57:05.292Z,5.47
2019-05-25T06:59:35.526Z,5.17
2019-05-25T07:02:05.838Z,5.62
2019-05-25T07:04:36.059Z,5.37
2019-05-25T07:07:06.312Z,4.12
2019-05-25T07:09:36.569Z,4.30
2019-05-25T07:12:06.922Z,3.75
2019-05-25T07:14:37.302Z,3.52
2019-05-25T07:17:07.914Z,3.27
2019-05-25T07:19:39.726Z,3.45
2019-05-25T07:22:10.389Z,3.60
2019-05-25T07:24:40.769Z,3.80
2019-05-25T07:27:11.446Z,3.70
2019-05-25T07:29:41.723Z,4.08
2019-05-25T07:32:11.893Z,4.25
2019-05-25T07:34:42.138Z,4.25
2019-05-25T07:37:12.410Z,3.70
2019-05-25T07:39:44.373Z,3.62
2019-05-25T07:42:14.645Z,3.50
2019-05-25T07:44:45.034Z,4.70
2019-05-25T07:47:15.771Z,4.50
2019-05-25T07:49:46.079Z,4.40
2019-05-25T07:52:16.391Z,3.83
2019-05-25T07:54:46.672Z,3.75
2019-05-25T07:57:17.261Z,3.92
2019-05-25T07:59:47.917Z,3.80
2019-05-25T08:02:18.254Z,3.00
2019-05-25T08:04:49.648Z,3.15
2019-05-25T08:07:20.553Z,3.35
2019-05-25T08:09:51.346Z,3.10
2019-05-25T08:12:21.660Z,3.08
2019-05-25T08:14:52.303Z,2.80
2019-05-25T08:17:22.948Z,3.12
2019-05-25T08:19:53.650Z,3.27
2019-05-25T08:22:24.309Z,2.70
2019-05-25T08:24:54.591Z,2.95
2019-05-25T08:27:24.895Z,4.08
2019-05-25T08:29:55.154Z,12.20
2019-05-25T08:32:25.784Z,3.02
2019-05-25T08:34:57.082Z,5.12
2019-05-25T08:37:27.679Z,2.92
2019-05-25T08:39:58.054Z,3.52
2019-05-25T08:42:28.277Z,3.25
2019-05-25T08:45:02.407Z,3.08
2019-05-25T08:47:34.827Z,2.92
2019-05-25T08:50:07.835Z,2.60
2019-05-25T08:52:39.288Z,2.80
2019-05-25T08:55:09.599Z,3.17
2019-05-25T08:57:39.816Z,2.92
2019-05-25T09:00:11.046Z,2.90
2019-05-25T09:02:41.676Z,3.00
2019-05-25T09:05:12.687Z,3.47
2019-05-25T09:07:43.870Z,3.22
2019-05-25T09:10:14.374Z,2.77
2019-05-25T09:12:44.586Z,3.22
2019-05-25T09:15:16.705Z,3.58
2019-05-25T09:17:48.056Z,3.12
2019-05-25T09:20:21.440Z,2.85
2019-05-25T09:25:21.522Z,3.37
2019-05-25T09:27:52.082Z,3.80
2019-05-25T09:30:22.506Z,3.70
2019-05-25T09:32:52.757Z,3.20
2019-05-25T09:35:23.347Z,3.85
2019-05-25T09:37:54.027Z,3.92
2019-05-25T09:40:24.493Z,4.17
2019-05-25T09:42:54.881Z,4.42
2019-05-25T09:45:25.096Z,3.30
2019-05-25T09:47:55.339Z,4.12
2019-05-25T09:50:26.133Z,3.52
2019-05-25T09:52:56.419Z,3.33
2019-05-25T09:55:26.643Z,3.50
2019-05-25T09:57:56.876Z,4.08
2019-05-25T10:00:27.850Z,3.75
2019-05-25T10:02:58.469Z,3.45
2019-05-25T10:05:29.014Z,3.80
2019-05-25T10:07:59.840Z,3.58
2019-05-25T10:10:30.147Z,3.70
2019-05-25T10:13:00.375Z,3.35
2019-05-25T10:15:30.802Z,3.30
2019-05-25T10:18:01.224Z,3.40
2019-05-25T10:20:31.561Z,3.70
2019-05-25T10:23:01.804Z,3.70
2019-05-25T10:25:32.303Z,3.35
2019-05-25T10:28:03.074Z,3.30
2019-05-25T10:30:36.110Z,3.90
2019-05-25T10:33:06.381Z,3.70
2019-05-25T10:35:36.920Z,3.62
2019-05-25T10:38:08.920Z,4.22
2019-05-25T10:40:39.613Z,4.80
2019-05-25T10:43:09.971Z,3.75
2019-05-25T10:45:40.198Z,3.60
2019-05-25T10:48:10.768Z,4.22
2019-05-25T10:50:41.066Z,3.60
2019-05-25T10:53:11.291Z,4.12
2019-05-25T10:55:41.930Z,4.05
2019-05-25T10:58:12.264Z,3.98
2019-05-25T11:00:42.603Z,4.70
2019-05-25T11:03:12.915Z,4.70
2019-05-25T11:05:43.192Z,3.70
2019-05-25T11:08:13.438Z,4.00
2019-05-25T11:10:45.624Z,4.00
2019-05-25T11:13:16.010Z,3.87
2019-05-25T11:15:46.587Z,4.83
2019-05-25T11:18:17.254Z,4.15
2019-05-25T11:20:47.713Z,3.87
2019-05-25T11:23:19.376Z,3.83
2019-05-25T11:25:50.017Z,4.00
2019-05-25T11:28:20.416Z,4.20
2019-05-25T11:30:50.897Z,4.00
2019-05-25T11:33:21.235Z,4.03
2019-05-25T11:35:51.455Z,4.50
2019-05-25T11:38:21.877Z,3.92
2019-05-25T11:40:52.529Z,3.85
2019-05-25T11:43:23.219Z,4.22
2019-05-25T11:45:53.576Z,4.42
2019-05-25T11:48:24.328Z,4.42
2019-05-25T11:50:54.667Z,4.35
2019-05-25T11:53:24.896Z,4.53
2019-05-25T11:55:55.083Z,4.00
2019-05-25T11:58:25.770Z,4.25
2019-05-25T12:00:56.021Z,4.25
2019-05-25T12:03:26.218Z,4.03
2019-05-25T12:05:56.441Z,3.42
2019-05-25T12:08:26.999Z,3.87
2019-05-25T12:10:57.406Z,3.87
2019-05-25T12:13:27.625Z,3.95
2019-05-25T12:15:58.224Z,3.70
2019-05-25T12:18:28.631Z,3.85
2019-05-25T12:20:59.226Z,3.95
2019-05-25T12:23:30.203Z,3.58
2019-05-25T12:26:00.571Z,3.50
2019-05-25T12:28:31.132Z,4.10
2019-05-25T12:31:01.554Z,4.55
2019-05-25T12:33:33.398Z,3.70
2019-05-25T12:36:04.752Z,3.50
2019-05-25T12:38:35.543Z,4.10
2019-05-25T12:41:06.727Z,4.08
2019-05-25T12:43:37.686Z,3.30
2019-05-25T12:46:07.944Z,3.70
2019-05-25T12:48:38.851Z,3.40
2019-05-25T12:51:09.132Z,4.03
2019-05-25T12:53:39.438Z,3.70
2019-05-25T12:56:09.740Z,4.00
2019-05-25T12:58:40.024Z,3.27
2019-05-25T13:01:10.274Z,4.05
2019-05-25T13:03:40.931Z,3.70
2019-05-25T13:06:11.231Z,3.52
2019-05-25T13:08:43.880Z,3.70
2019-05-25T13:11:13.405Z,4.00
2019-05-25T13:13:43.630Z,3.85
2019-05-25T13:16:14.682Z,3.87
2019-05-25T13:18:45.622Z,3.45
2019-05-25T13:21:16.005Z,3.60
2019-05-25T13:23:46.569Z,4.22
2019-05-25T13:26:16.856Z,3.70
2019-05-25T13:28:47.442Z,3.62
2019-05-25T13:31:18.052Z,3.65
2019-05-25T13:33:48.280Z,4.28
2019-05-25T13:36:18.515Z,5.05
2019-05-25T13:38:50.741Z,4.92
2019-05-25T13:41:21.582Z,4.90
2019-05-25T13:43:51.881Z,5.58
2019-05-25T13:46:22.288Z,5.45
2019-05-25T13:48:52.880Z,6.03
2019-05-25T13:51:23.325Z,5.50
2019-05-25T13:53:54.092Z,6.12
2019-05-25T13:56:24.700Z,5.90
2019-05-25T13:58:55.351Z,6.17
2019-05-25T14:01:28.729Z,6.60
2019-05-25T14:03:57.975Z,6.62
2019-05-25T14:06:29.430Z,6.08
2019-05-25T14:09:00.111Z,5.37
2019-05-25T14:11:30.795Z,5.83
2019-05-25T14:14:01.102Z,5.40
2019-05-25T14:16:31.336Z,5.95
2019-05-25T14:19:01.604Z,5.45
2019-05-25T14:21:31.835Z,5.47
2019-05-25T14:24:02.062Z,5.62
2019-05-25T14:26:32.283Z,6.30
2019-05-25T14:29:02.582Z,6.53
2019-05-25T14:31:44.922Z,6.20
2019-05-25T14:34:05.474Z,6.62
2019-05-25T14:36:35.807Z,6.28
2019-05-25T14:39:08.587Z,6.42
2019-05-25T14:41:39.139Z,6.37
2019-05-25T14:44:09.423Z,6.55
2019-05-25T14:46:40.031Z,6.00
2019-05-25T14:49:10.455Z,6.60
2019-05-25T14:51:40.813Z,5.75
2019-05-25T14:54:11.036Z,5.60
2019-05-25T14:56:41.273Z,6.03
2019-05-25T14:59:11.524Z,5.90
2019-05-25T15:01:41.789Z,6.10
2019-05-25T15:04:12.387Z,5.20
2019-05-25T15:06:43.016Z,5.53
2019-05-25T15:09:13.733Z,5.72
2019-05-25T15:11:44.081Z,5.28
2019-05-25T15:14:14.382Z,5.50
2019-05-25T15:16:46.325Z,5.28
2019-05-25T15:19:17.063Z,4.90
2019-05-25T15:21:47.449Z,4.10
2019-05-25T15:24:17.668Z,4.70
2019-05-25T15:26:47.879Z,4.78
2019-05-25T15:29:18.191Z,4.58
2019-05-25T15:31:48.646Z,4.55
2019-05-25T15:34:18.909Z,4.72
2019-05-25T15:36:49.625Z,4.40
2019-05-25T15:39:19.929Z,4.33
2019-05-25T15:41:50.501Z,4.33
2019-05-25T15:44:21.158Z,4.33
2019-05-25T15:46:51.955Z,4.10
2019-05-25T15:49:32.448Z,4.10
2019-05-25T15:51:54.794Z,3.65
2019-05-25T15:54:25.536Z,3.60
2019-05-25T15:56:55.913Z,3.55
2019-05-25T15:59:26.176Z,3.00
2019-05-25T16:01:56.479Z,2.98
2019-05-25T16:04:26.823Z,2.95
2019-05-25T16:06:57.386Z,2.60
2019-05-25T16:09:27.694Z,2.85
2019-05-25T16:11:57.989Z,2.70
2019-05-25T16:14:28.741Z,2.00
2019-05-25T16:16:59.153Z,2.20
2019-05-25T16:19:29.390Z,2.22
2019-05-25T16:21:59.612Z,2.65
2019-05-25T16:24:30.278Z,2.65
2019-05-25T16:27:00.563Z,2.27
2019-05-25T16:29:31.237Z,2.10
2019-05-25T16:32:01.947Z,2.30
2019-05-25T16:34:32.261Z,2.05
2019-05-25T16:37:02.686Z,2.10
2019-05-25T16:39:33.364Z,2.30
2019-05-25T16:42:04.015Z,2.85
2019-05-25T16:44:35.906Z,2.62
2019-05-25T16:47:06.925Z,2.80
2019-05-25T16:49:39.528Z,3.47
2019-05-25T16:52:10.175Z,3.50
2019-05-25T16:54:40.537Z,3.50
2019-05-25T16:57:10.795Z,3.75
2019-05-25T16:59:41.438Z,4.60
2019-05-25T17:02:11.780Z,4.30
2019-05-25T17:04:42.047Z,4.72
2019-05-25T17:07:12.437Z,3.77
2019-05-25T17:09:45.530Z,5.25
2019-05-25T17:12:16.108Z,4.22
2019-05-25T17:14:47.520Z,3.12
2019-05-25T17:17:17.756Z,2.70
2019-05-25T17:19:47.983Z,3.33
2019-05-25T17:22:18.277Z,5.37
2019-05-25T17:24:48.597Z,10.28
2019-05-25T17:27:18.937Z,10.68
2019-05-25T17:29:49.156Z,6.65
2019-05-25T17:32:19.475Z,13.38
2019-05-25T17:34:49.804Z,21.27
2019-05-25T17:37:20.061Z,18.25
2019-05-25T17:39:50.661Z,15.05
2019-05-25T17:42:21.365Z,9.95
2019-05-25T17:44:51.646Z,7.53
2019-05-25T17:47:23.776Z,8.90
2019-05-25T17:49:54.458Z,8.03
2019-05-25T17:52:25.147Z,8.30
2019-05-25T17:54:55.363Z,6.33
2019-05-25T17:57:25.614Z,3.87
2019-05-25T17:59:59.388Z,3.47
2019-05-25T18:02:29.944Z,3.50
2019-05-25T18:05:00.608Z,3.12
2019-05-25T18:07:31.064Z,3.62
2019-05-25T18:10:01.304Z,3.17
2019-05-25T18:12:33.676Z,3.85
2019-05-25T18:15:09.524Z,3.90
2019-05-25T18:17:39.775Z,3.52
2019-05-25T18:20:12.864Z,3.47
2019-05-25T18:22:46.133Z,4.20
2019-05-25T18:25:17.167Z,5.20
2019-05-25T18:27:49.251Z,6.25
2019-05-25T18:30:20.240Z,8.20
2019-05-25T18:32:50.876Z,7.72
2019-05-25T18:35:21.754Z,7.55
2019-05-25T18:37:52.130Z,8.73
2019-05-25T18:40:22.384Z,8.25
2019-05-25T18:42:53.050Z,11.95
2019-05-25T18:45:23.766Z,17.73
2019-05-25T18:47:54.566Z,29.87
2019-05-25T18:50:25.350Z,34.13
2019-05-25T18:52:56.038Z,41.28
2019-05-25T18:55:26.866Z,47.78
2019-05-25T18:57:57.314Z,49.13
2019-05-25T19:00:27.807Z,44.60
2019-05-25T19:02:58.825Z,35.00
2019-05-25T19:05:29.559Z,27.65
2019-05-25T19:07:59.917Z,20.10
2019-05-25T19:10:30.445Z,17.55
2019-05-25T19:13:00.686Z,15.38
2019-05-25T19:15:30.942Z,13.40
2019-05-25T19:18:01.349Z,12.30
2019-05-25T19:20:31.648Z,15.68
2019-05-25T19:23:02.038Z,15.30
2019-05-25T19:25:32.715Z,24.82
2019-05-25T19:28:03.033Z,36.38
2019-05-25T19:30:34.840Z,37.40
2019-05-25T19:33:06.550Z,34.45
2019-05-25T19:35:37.224Z,21.55
2019-05-25T19:38:08.100Z,19.10
2019-05-25T19:40:38.786Z,15.03
2019-05-25T19:43:09.121Z,14.47
2019-05-25T19:45:39.423Z,13.95
2019-05-25T19:48:09.680Z,12.53
2019-05-25T19:50:40.262Z,11.40
2019-05-25T19:53:10.559Z,12.25
2019-05-25T19:55:41.207Z,11.22
2019-05-25T19:58:11.542Z,9.15
2019-05-25T20:00:42.183Z,8.33
2019-05-25T20:03:12.725Z,7.47
2019-05-25T20:05:43.337Z,7.75
2019-05-25T20:08:13.919Z,7.42
2019-05-25T20:10:44.204Z,7.50
2019-05-25T20:13:14.493Z,7.28
2019-05-25T20:15:44.741Z,7.08
2019-05-25T20:18:14.997Z,7.47
2019-05-25T20:20:45.366Z,7.20
2019-05-25T20:23:15.625Z,6.65
2019-05-25T20:25:45.858Z,6.95
2019-05-25T20:28:16.181Z,6.20
2019-05-25T20:30:46.457Z,6.28
2019-05-25T20:33:26.984Z,6.00
2019-05-25T20:35:51.316Z,6.50
2019-05-25T20:38:23.696Z,7.45
2019-05-25T20:40:54.090Z,7.92
2019-05-25T20:43:24.359Z,8.10
2019-05-25T20:45:55.159Z,8.03
2019-05-25T20:48:27.121Z,7.75
2019-05-25T20:50:57.984Z,7.42
2019-05-25T20:53:28.257Z,7.53
2019-05-25T20:55:58.700Z,9.48
2019-05-25T20:58:28.941Z,9.95
2019-05-25T21:00:59.558Z,9.55
2019-05-25T21:03:29.801Z,10.50
2019-05-25T21:06:00.076Z,10.65
2019-05-25T21:08:30.715Z,9.95
2019-05-25T21:11:01.346Z,11.28
2019-05-25T21:13:32.032Z,11.50
2019-05-25T21:16:02.414Z,13.60
2019-05-25T21:18:32.653Z,12.05
2019-05-25T21:21:03.005Z,11.45
2019-05-25T21:23:33.260Z,8.55
2019-05-25T21:26:04.386Z,8.00
2019-05-25T21:28:36.590Z,7.53
2019-05-25T21:31:07.525Z,6.97
2019-05-25T21:33:38.225Z,7.53
2019-05-25T21:36:09.430Z,7.62
2019-05-25T21:38:39.890Z,8.55
2019-05-25T21:41:10.476Z,9.28
2019-05-25T21:43:41.130Z,9.70
2019-05-25T21:46:11.450Z,9.85
2019-05-25T21:48:42.023Z,9.95
2019-05-25T21:51:14.315Z,10.08
2019-05-25T21:53:44.612Z,10.72
2019-05-25T21:56:14.887Z,10.43
2019-05-25T21:58:45.107Z,9.25
2019-05-25T22:01:15.695Z,9.88
2019-05-25T22:03:45.918Z,10.05
2019-05-25T22:06:24.316Z,9.85
2019-05-25T22:08:48.066Z,10.30
2019-05-25T22:11:18.329Z,10.38
2019-05-25T22:13:48.735Z,10.25
2019-05-25T22:16:19.309Z,10.23
2019-05-25T22:18:49.798Z,10.68
2019-05-25T22:21:20.367Z,10.70
2019-05-25T22:23:50.696Z,10.65
2019-05-25T22:26:20.954Z,12.88
2019-05-25T22:28:51.185Z,12.65
2019-05-25T22:31:21.470Z,12.73
2019-05-25T22:33:51.680Z,12.68
2019-05-25T22:36:21.906Z,13.05
2019-05-25T22:38:52.144Z,12.95
2019-05-25T22:41:22.398Z,11.48
2019-05-25T22:43:52.986Z,12.70
2019-05-25T22:46:23.635Z,12.35
2019-05-25T22:48:54.337Z,11.93
2019-05-25T22:51:24.833Z,11.60
2019-05-25T22:53:55.476Z,11.73
2019-05-25T22:56:26.059Z,12.37
2019-05-25T22:58:57.894Z,12.43
2019-05-25T23:01:28.385Z,13.30
2019-05-25T23:03:58.607Z,12.70
2019-05-25T23:06:29.234Z,13.18
2019-05-25T23:08:59.909Z,14.15
2019-05-25T23:11:30.369Z,12.30
2019-05-25T23:14:00.680Z,12.43
2019-05-25T23:16:31.047Z,13.08
2019-05-25T23:19:01.290Z,12.63
2019-05-25T23:21:31.578Z,13.03
2019-05-25T23:24:01.889Z,11.88
2019-05-25T23:26:32.118Z,12.33
2019-05-25T23:29:02.359Z,12.47
2019-05-25T23:31:32.754Z,12.40
2019-05-25T23:34:03.102Z,12.43
2019-05-25T23:36:33.309Z,12.68
2019-05-25T23:39:24.345Z,13.18
2019-05-25T23:41:54.925Z,12.85
2019-05-25T23:44:25.785Z,13.58
2019-05-25T23:46:56.062Z,12.65
2019-05-25T23:49:26.311Z,13.45
2019-05-25T23:51:56.529Z,12.40
2019-05-25T23:54:26.933Z,11.78
2019-05-25T23:56:57.143Z,12.05
2019-05-25T23:59:27.658Z,13.35
